KBRY/BRY METAR and TAF weather

Enter ICAO airport designator
Station Type Date Time Source
KBRY METAR 2021/09/20 05:35 UTC NOAA

KBRY 200535Z AUTO 00000KT 10SM CLR 20/20 A3005 RMK AO1


Station Type Date Time Source
KBRY Decoded METAR 2021/09/20 05:35 UTC NOAA

Station name not available
Sep 20, 2021 - 01:35 AM EDT / 2021.09.20 0535 UTC
Wind: Calm:0
Visibility: 10 mile(s):0
Sky conditions: clear
Temperature: 68 F (20 C)
Dew Point: 68 F (20 C)
Relative Humidity: 100%
Pressure (altimeter): 30.05 in. Hg (1017 hPa)
ob: KBRY 200535Z AUTO 00000KT 10SM CLR 20/20 A3005 RMK AO1
cycle: 5

Station Type Date Time Source
KBRY TAF UTC NOAA

Error!

Example: see airport list